Time;durP1;ratioP1;P1;durP2;ratioP2;P2;SDS_P1;SDS_P2;PMS_P1;PMS_P2;Temp;Humidity;BMP_temperature;BMP_pressure;BME280_temperature;BME280_humidity;BME280_pressure;Samples;Min_cycle;Max_cycle;Signal;HPM_P1;HPM_P2
2021/03/30 00:01:05;;;;;;;10.50;4.85;;;;;;;;;;5155748;27;20184;-72
2021/03/30 00:03:31;;;;;;;4.20;3.63;;;;;;;;;;5157117;27;20221;-72
2021/03/30 00:05:57;;;;;;;9.48;5.43;;;;;;;;;;5156865;27;20187;-72
2021/03/30 00:08:23;;;;;;;8.48;4.75;;;;;;;;;;5157243;27;20199;-72
2021/03/30 00:10:49;;;;;;;6.28;4.75;;;;;;;;;;5157681;27;20621;-73
2021/03/30 00:13:15;;;;;;;7.75;4.63;;;;;;;;;;5157399;27;20190;-72
2021/03/30 00:15:42;;;;;;;14.25;4.75;;;;;;;;;;5157604;27;20229;-71
2021/03/30 00:18:09;;;;;;;6.30;4.93;;;;;;;;;;5157600;27;20204;-72
2021/03/30 00:20:35;;;;;;;6.85;4.00;;;;;;;;;;5157491;27;20201;-70
2021/03/30 00:23:01;;;;;;;8.18;3.97;;;;;;;;;;5157305;27;20254;-72
2021/03/30 00:25:27;;;;;;;8.02;4.13;;;;;;;;;;5152687;27;20318;-72
2021/03/30 00:27:53;;;;;;;6.90;4.45;;;;;;;;;;5156519;27;20246;-72
2021/03/30 00:30:20;;;;;;;6.25;4.32;;;;;;;;;;5154900;27;20191;-71
2021/03/30 00:32:46;;;;;;;7.13;5.18;;;;;;;;;;5157207;27;20229;-71
2021/03/30 00:35:13;;;;;;;5.85;4.15;;;;;;;;;;5157540;27;20197;-72
2021/03/30 00:37:40;;;;;;;9.60;4.53;;;;;;;;;;5156549;27;20226;-72
2021/03/30 00:40:07;;;;;;;4.38;3.55;;;;;;;;;;5156967;27;20655;-70
2021/03/30 00:42:33;;;;;;;6.10;4.22;;;;;;;;;;5157091;27;20222;-72
2021/03/30 00:44:59;;;;;;;8.82;5.00;;;;;;;;;;5156680;27;20217;-71
2021/03/30 00:47:26;;;;;;;8.20;3.95;;;;;;;;;;5157198;27;20226;-70
2021/03/30 00:49:52;;;;;;;7.65;4.95;;;;;;;;;;5156780;27;20601;-70
2021/03/30 00:52:20;;;;;;;5.78;3.97;;;;;;;;;;5136361;27;20199;-72
2021/03/30 00:54:47;;;;;;;6.38;4.60;;;;;;;;;;5136182;27;20202;-72
2021/03/30 00:57:13;;;;;;;7.40;3.80;;;;;;;;;;5135924;27;20640;-72
2021/03/30 00:59:39;;;;;;;8.18;3.97;;;;;;;;;;5136005;27;20625;-72
2021/03/30 01:02:06;;;;;;;5.55;4.30;;;;;;;;;;5136342;27;20198;-72
2021/03/30 01:04:32;;;;;;;5.75;3.97;;;;;;;;;;5135796;27;20664;-72
2021/03/30 01:06:58;;;;;;;6.70;3.30;;;;;;;;;;5140446;27;20631;-72
2021/03/30 01:09:31;;;;;;;4.97;3.65;;;;;;;;;;5156515;27;20194;-73
2021/03/30 01:12:04;;;;;;;8.18;3.50;;;;;;;;;;5156242;27;20194;-72
2021/03/30 01:14:40;;;;;;;7.47;4.03;;;;;;;;;;5156452;27;20190;-71
2021/03/30 01:17:11;;;;;;;7.10;4.70;;;;;;;;;;5154991;27;20193;-72
2021/03/30 01:19:59;;;;;;;6.78;4.15;;;;;;;;;;5156082;27;20202;-72
2021/03/30 01:22:39;;;;;;;8.55;3.63;;;;;;;;;;5156258;27;20235;-72
2021/03/30 01:25:07;;;;;;;6.53;4.50;;;;;;;;;;5155689;27;20236;-71
2021/03/30 01:27:37;;;;;;;6.22;4.55;;;;;;;;;;5156020;27;20266;-71
2021/03/30 01:30:06;;;;;;;7.75;3.80;;;;;;;;;;5156333;27;20607;-72
2021/03/30 01:32:34;;;;;;;8.27;4.68;;;;;;;;;;5156002;27;20198;-71
2021/03/30 01:35:01;;;;;;;6.85;3.83;;;;;;;;;;5156708;27;20638;-72
2021/03/30 01:37:27;;;;;;;10.50;5.10;;;;;;;;;;5155175;27;20304;-72
2021/03/30 01:39:54;;;;;;;5.13;3.55;;;;;;;;;;5154833;27;20237;-72
2021/03/30 01:42:23;;;;;;;5.07;3.95;;;;;;;;;;5156292;27;20289;-72
2021/03/30 01:44:49;;;;;;;6.43;4.05;;;;;;;;;;5155724;27;20217;-72
2021/03/30 01:47:17;;;;;;;6.75;4.43;;;;;;;;;;5155731;27;20202;-72
2021/03/30 01:49:44;;;;;;;6.10;3.85;;;;;;;;;;5141822;27;20198;-72
2021/03/30 01:52:10;;;;;;;9.18;4.95;;;;;;;;;;5135161;27;20189;-70
2021/03/30 01:54:37;;;;;;;5.57;4.78;;;;;;;;;;5135055;27;20194;-71
2021/03/30 01:57:04;;;;;;;6.75;3.85;;;;;;;;;;5135162;27;20198;-71
2021/03/30 01:59:31;;;;;;;7.97;4.35;;;;;;;;;;5134320;27;20223;-71
2021/03/30 02:01:57;;;;;;;8.38;5.20;;;;;;;;;;5134637;27;20202;-71
2021/03/30 02:04:25;;;;;;;9.13;4.85;;;;;;;;;;5134868;27;20218;-71
2021/03/30 02:06:54;;;;;;;6.85;4.55;;;;;;;;;;5134674;27;20209;-72
2021/03/30 02:09:24;;;;;;;5.65;4.00;;;;;;;;;;5134972;27;20195;-72
2021/03/30 02:11:53;;;;;;;8.30;5.00;;;;;;;;;;5135116;27;20187;-72
2021/03/30 02:14:19;;;;;;;7.30;4.40;;;;;;;;;;5134805;27;20690;-71
2021/03/30 02:16:48;;;;;;;7.30;4.47;;;;;;;;;;5134573;27;20205;-72
2021/03/30 02:19:16;;;;;;;5.35;3.88;;;;;;;;;;5134867;27;20195;-71
2021/03/30 02:21:45;;;;;;;9.18;4.20;;;;;;;;;;5134519;27;20247;-72
2021/03/30 02:24:12;;;;;;;6.05;3.75;;;;;;;;;;5134909;27;20652;-71
2021/03/30 02:26:39;;;;;;;6.28;4.10;;;;;;;;;;5134249;27;20235;-73
2021/03/30 02:29:08;;;;;;;7.60;4.07;;;;;;;;;;5134269;27;20193;-71
2021/03/30 02:31:36;;;;;;;4.30;3.88;;;;;;;;;;5134258;27;20205;-72
2021/03/30 02:34:04;;;;;;;4.32;3.65;;;;;;;;;;5134422;28;20218;-71
2021/03/30 02:36:30;;;;;;;4.88;4.15;;;;;;;;;;5134594;27;20241;-71
2021/03/30 02:38:59;;;;;;;7.68;3.75;;;;;;;;;;5134589;28;20595;-70
2021/03/30 02:41:28;;;;;;;8.63;4.40;;;;;;;;;;5134131;28;20293;-71
2021/03/30 02:43:54;;;;;;;6.07;3.70;;;;;;;;;;5134422;28;20195;-72
2021/03/30 02:46:21;;;;;;;7.22;4.55;;;;;;;;;;5134522;27;20203;-72
2021/03/30 02:48:48;;;;;;;6.50;4.10;;;;;;;;;;5134541;28;20263;-72
2021/03/30 02:51:14;;;;;;;4.90;4.32;;;;;;;;;;5134413;28;20205;-71
2021/03/30 02:53:41;;;;;;;7.60;3.65;;;;;;;;;;5143159;27;20305;-71
2021/03/30 02:56:08;;;;;;;10.63;4.40;;;;;;;;;;5154902;27;20311;-72
2021/03/30 02:58:34;;;;;;;8.02;4.50;;;;;;;;;;5155262;27;20212;-71
2021/03/30 03:01:01;;;;;;;8.68;4.57;;;;;;;;;;5155340;27;20201;-71
2021/03/30 03:03:29;;;;;;;4.50;3.85;;;;;;;;;;5154711;27;20209;-71
2021/03/30 03:05:56;;;;;;;6.65;4.38;;;;;;;;;;5154918;27;20266;-70
2021/03/30 03:08:22;;;;;;;4.70;3.90;;;;;;;;;;5154724;27;20194;-71
2021/03/30 03:10:51;;;;;;;6.38;4.40;;;;;;;;;;5155219;27;20198;-71
2021/03/30 03:13:18;;;;;;;5.97;4.30;;;;;;;;;;5154633;27;20232;-72
2021/03/30 03:15:45;;;;;;;4.50;3.42;;;;;;;;;;5155278;27;20231;-72
2021/03/30 03:18:12;;;;;;;5.18;3.70;;;;;;;;;;5154133;27;20189;-71
2021/03/30 03:20:38;;;;;;;7.47;4.97;;;;;;;;;;5154680;27;20270;-71
2021/03/30 03:23:05;;;;;;;5.97;4.35;;;;;;;;;;5154792;27;20205;-72
2021/03/30 03:25:31;;;;;;;5.82;4.88;;;;;;;;;;5155086;27;20671;-71
2021/03/30 03:28:00;;;;;;;7.07;4.35;;;;;;;;;;5154644;27;20197;-73
2021/03/30 03:30:28;;;;;;;5.28;3.85;;;;;;;;;;5155227;27;20239;-71
2021/03/30 03:32:54;;;;;;;4.57;3.85;;;;;;;;;;5155300;27;20311;-72
2021/03/30 03:35:20;;;;;;;6.45;4.25;;;;;;;;;;5155084;27;20252;-71
2021/03/30 03:37:46;;;;;;;4.22;3.90;;;;;;;;;;5154530;27;20202;-71
2021/03/30 03:40:13;;;;;;;7.50;4.55;;;;;;;;;;5156530;27;20254;-71
2021/03/30 03:42:40;;;;;;;4.47;3.55;;;;;;;;;;5158241;27;20225;-71
2021/03/30 03:45:07;;;;;;;5.53;4.30;;;;;;;;;;5140607;27;20273;-70
2021/03/30 03:47:34;;;;;;;6.57;4.63;;;;;;;;;;5137521;27;20179;-70
2021/03/30 03:50:02;;;;;;;7.78;4.47;;;;;;;;;;5137525;27;20258;-71
2021/03/30 03:52:28;;;;;;;8.43;5.38;;;;;;;;;;5137545;27;20219;-71
2021/03/30 03:54:57;;;;;;;4.97;4.50;;;;;;;;;;5137183;27;20253;-71
2021/03/30 03:57:25;;;;;;;7.05;4.20;;;;;;;;;;5137009;27;20541;-71
2021/03/30 03:59:51;;;;;;;5.60;3.85;;;;;;;;;;5137223;27;20244;-71
2021/03/30 04:02:20;;;;;;;6.60;4.55;;;;;;;;;;5136959;27;20201;-72
2021/03/30 04:04:49;;;;;;;5.82;3.80;;;;;;;;;;5142979;27;20636;-72
2021/03/30 04:07:17;;;;;;;5.50;4.07;;;;;;;;;;5157701;27;20222;-70
2021/03/30 04:09:45;;;;;;;9.38;5.32;;;;;;;;;;5158301;27;20642;-72
2021/03/30 04:12:12;;;;;;;8.00;5.07;;;;;;;;;;5158280;27;20198;-70
2021/03/30 04:14:38;;;;;;;20.50;6.50;;;;;;;;;;5157567;27;20698;-72
2021/03/30 04:17:05;;;;;;;5.57;4.25;;;;;;;;;;5157334;27;20212;-71
2021/03/30 04:19:31;;;;;;;5.05;3.80;;;;;;;;;;5157208;27;20201;-71
2021/03/30 04:21:59;;;;;;;10.57;4.40;;;;;;;;;;5157301;27;20188;-70
2021/03/30 04:24:26;;;;;;;5.68;4.60;;;;;;;;;;5157276;27;20198;-70
2021/03/30 04:26:52;;;;;;;6.55;4.60;;;;;;;;;;5157465;27;20635;-72
2021/03/30 04:29:18;;;;;;;4.40;3.95;;;;;;;;;;5157124;27;20196;-71
2021/03/30 04:31:44;;;;;;;15.48;5.45;;;;;;;;;;5155831;27;20678;-71
2021/03/30 04:34:10;;;;;;;5.38;4.85;;;;;;;;;;5157159;27;20218;-71
2021/03/30 04:36:36;;;;;;;5.43;4.15;;;;;;;;;;5157023;27;20284;-73
2021/03/30 04:39:04;;;;;;;11.27;5.88;;;;;;;;;;5156695;27;20240;-70
2021/03/30 04:41:30;;;;;;;9.85;6.07;;;;;;;;;;5136103;27;20202;-71
2021/03/30 04:43:56;;;;;;;7.50;4.93;;;;;;;;;;5135882;27;20280;-71
2021/03/30 04:46:22;;;;;;;7.05;4.20;;;;;;;;;;5136096;27;20209;-70
2021/03/30 04:48:48;;;;;;;5.95;4.15;;;;;;;;;;5135869;27;20198;-71
2021/03/30 04:51:14;;;;;;;11.77;5.30;;;;;;;;;;5134773;27;20198;-71
2021/03/30 04:53:40;;;;;;;11.38;5.25;;;;;;;;;;5136025;27;20553;-70
2021/03/30 04:56:07;;;;;;;6.20;4.43;;;;;;;;;;5135819;27;20201;-73
2021/03/30 04:58:34;;;;;;;6.45;5.68;;;;;;;;;;5136474;27;20296;-71
2021/03/30 05:01:00;;;;;;;9.50;5.85;;;;;;;;;;5135890;27;20209;-71
2021/03/30 05:03:26;;;;;;;8.30;5.60;;;;;;;;;;5135549;27;20252;-71
2021/03/30 05:05:52;;;;;;;7.28;4.10;;;;;;;;;;5135959;27;20202;-71
2021/03/30 05:08:18;;;;;;;5.30;3.90;;;;;;;;;;5150029;27;20185;-71
2021/03/30 05:10:44;;;;;;;5.78;4.30;;;;;;;;;;5156771;27;20566;-73
2021/03/30 05:13:11;;;;;;;6.13;4.90;;;;;;;;;;5149443;27;20258;-70
2021/03/30 05:15:37;;;;;;;7.75;4.82;;;;;;;;;;5135611;27;20206;-70
2021/03/30 05:18:04;;;;;;;5.82;5.22;;;;;;;;;;5145328;27;20559;-71
2021/03/30 05:20:30;;;;;;;7.05;5.18;;;;;;;;;;5156397;27;20225;-69
2021/03/30 05:22:56;;;;;;;10.02;4.90;;;;;;;;;;5156028;27;20295;-69
2021/03/30 05:25:22;;;;;;;5.53;4.70;;;;;;;;;;5155884;27;20646;-71
2021/03/30 05:27:48;;;;;;;9.98;5.10;;;;;;;;;;5155723;27;20205;-70
2021/03/30 05:30:17;;;;;;;8.48;5.75;;;;;;;;;;5155629;27;20541;-70
2021/03/30 05:32:43;;;;;;;11.43;5.90;;;;;;;;;;5155997;27;20206;-72
2021/03/30 05:35:10;;;;;;;11.35;6.68;;;;;;;;;;5155628;27;20266;-71
2021/03/30 05:37:36;;;;;;;11.20;6.43;;;;;;;;;;5155230;27;20234;-71
2021/03/30 05:40:04;;;;;;;11.23;5.63;;;;;;;;;;5155968;27;20231;-72
2021/03/30 05:42:31;;;;;;;7.00;5.82;;;;;;;;;;5155675;27;20210;-72
2021/03/30 05:44:57;;;;;;;6.63;5.85;;;;;;;;;;5155218;27;20193;-70
2021/03/30 05:47:25;;;;;;;5.65;4.43;;;;;;;;;;5155898;27;20201;-71
2021/03/30 05:49:52;;;;;;;11.10;6.32;;;;;;;;;;5136109;27;20626;-72
2021/03/30 05:52:30;;;;;;;7.80;4.90;;;;;;;;;;5134534;27;20202;-70
2021/03/30 05:54:56;;;;;;;6.97;4.57;;;;;;;;;;5134434;27;20231;-70
2021/03/30 05:57:24;;;;;;;7.15;4.82;;;;;;;;;;5152529;27;20192;-70
2021/03/30 05:59:51;;;;;;;11.93;7.00;;;;;;;;;;5155136;27;20314;-71
2021/03/30 06:02:22;;;;;;;7.57;5.45;;;;;;;;;;5154481;27;20189;-71
2021/03/30 06:04:49;;;;;;;12.60;5.75;;;;;;;;;;5155492;27;20201;-70
2021/03/30 06:07:16;;;;;;;7.47;5.30;;;;;;;;;;5152616;27;20273;-72
2021/03/30 06:09:43;;;;;;;8.85;5.22;;;;;;;;;;5155558;27;20205;-71
2021/03/30 06:12:11;;;;;;;15.27;6.60;;;;;;;;;;5155399;27;20205;-70
2021/03/30 06:14:38;;;;;;;10.80;5.78;;;;;;;;;;5155346;27;20746;-70
2021/03/30 06:17:05;;;;;;;12.40;6.32;;;;;;;;;;5155689;27;20201;-70
2021/03/30 06:19:46;;;;;;;15.77;6.57;;;;;;;;;;5155303;27;20746;-71
2021/03/30 06:22:13;;;;;;;7.75;5.45;;;;;;;;;;5155311;27;20198;-70
2021/03/30 06:24:39;;;;;;;7.15;5.10;;;;;;;;;;5155415;27;20242;-71
2021/03/30 06:27:18;;;;;;;12.10;6.15;;;;;;;;;;5150941;27;20208;-72
2021/03/30 06:29:44;;;;;;;15.00;6.30;;;;;;;;;;5154720;27;20193;-73
2021/03/30 06:32:11;;;;;;;13.05;6.63;;;;;;;;;;5155667;27;20201;-72
2021/03/30 06:34:38;;;;;;;8.27;6.05;;;;;;;;;;5155172;27;20241;-72
2021/03/30 06:37:25;;;;;;;14.15;7.45;;;;;;;;;;5155357;27;20610;-72
2021/03/30 06:39:52;;;;;;;7.88;5.78;;;;;;;;;;5135786;27;20222;-70
2021/03/30 06:42:27;;;;;;;8.07;6.38;;;;;;;;;;5134375;27;20205;-71
2021/03/30 06:44:53;;;;;;;10.73;6.30;;;;;;;;;;5134443;28;20197;-72
2021/03/30 06:47:23;;;;;;;9.35;7.13;;;;;;;;;;5134981;27;20206;-72
2021/03/30 06:49:53;;;;;;;8.63;6.20;;;;;;;;;;5135020;28;20190;-72
2021/03/30 06:52:21;;;;;;;10.55;7.00;;;;;;;;;;5134830;28;20289;-72
2021/03/30 06:54:54;;;;;;;16.50;7.75;;;;;;;;;;5134112;28;20770;-72
2021/03/30 06:57:36;;;;;;;11.75;6.80;;;;;;;;;;5136422;27;20212;-72
2021/03/30 07:00:04;;;;;;;12.07;5.93;;;;;;;;;;5147870;27;20206;-72
2021/03/30 07:02:31;;;;;;;12.52;7.35;;;;;;;;;;5155886;27;20670;-79
2021/03/30 07:04:57;;;;;;;11.30;6.90;;;;;;;;;;5154426;27;20195;-73
2021/03/30 07:07:23;;;;;;;12.60;7.37;;;;;;;;;;5134315;27;20275;-73
2021/03/30 07:09:49;;;;;;;11.82;7.38;;;;;;;;;;5134678;27;20522;-71
2021/03/30 07:12:17;;;;;;;15.10;6.88;;;;;;;;;;5134390;27;20201;-73
2021/03/30 07:14:43;;;;;;;11.75;7.30;;;;;;;;;;5135059;27;20256;-72
2021/03/30 07:17:10;;;;;;;17.73;7.15;;;;;;;;;;5138101;27;20276;-72
2021/03/30 07:19:37;;;;;;;11.48;7.10;;;;;;;;;;5145728;27;20230;-73
2021/03/30 07:22:04;;;;;;;11.90;8.02;;;;;;;;;;5138351;27;20209;-75
2021/03/30 07:24:35;;;;;;;12.57;7.43;;;;;;;;;;5153888;27;20190;-72
2021/03/30 07:27:02;;;;;;;9.90;6.00;;;;;;;;;;5158701;27;20201;-70
2021/03/30 07:29:30;;;;;;;9.55;6.13;;;;;;;;;;5158111;27;20287;-71
2021/03/30 07:32:00;;;;;;;10.35;7.20;;;;;;;;;;5158812;27;20665;-72
2021/03/30 07:34:30;;;;;;;9.48;7.35;;;;;;;;;;5158583;27;20373;-70
2021/03/30 07:37:00;;;;;;;10.48;6.90;;;;;;;;;;5158273;27;20313;-70
2021/03/30 07:39:29;;;;;;;34.97;17.35;;;;;;;;;;5158362;27;20209;-71
2021/03/30 07:41:56;;;;;;;24.50;15.93;;;;;;;;;;5157909;27;20471;-71
2021/03/30 07:44:22;;;;;;;29.25;14.38;;;;;;;;;;5157702;27;20213;-71
2021/03/30 07:46:50;;;;;;;10.50;6.95;;;;;;;;;;5158187;27;20197;-71
2021/03/30 07:49:16;;;;;;;11.52;8.00;;;;;;;;;;5145952;27;20640;-70
2021/03/30 07:51:44;;;;;;;11.18;7.72;;;;;;;;;;5136831;27;20206;-72
2021/03/30 07:54:12;;;;;;;11.43;7.38;;;;;;;;;;5137418;27;20617;-72
2021/03/30 07:56:48;;;;;;;8.52;6.50;;;;;;;;;;5145549;27;20200;-72
2021/03/30 07:59:29;;;;;;;14.30;6.75;;;;;;;;;;5154686;27;20205;-72
2021/03/30 08:01:56;;;;;;;12.10;6.53;;;;;;;;;;5155511;27;20194;-72
2021/03/30 08:04:25;;;;;;;11.18;6.88;;;;;;;;;;5155289;27;20190;-72
2021/03/30 08:06:51;;;;;;;8.43;6.10;;;;;;;;;;5148712;27;20187;-72
2021/03/30 08:09:19;;;;;;;7.18;6.10;;;;;;;;;;5137116;27;20203;-73
2021/03/30 08:11:49;;;;;;;15.35;7.75;;;;;;;;;;5148983;27;20671;-72
2021/03/30 08:14:33;;;;;;;11.52;7.50;;;;;;;;;;5157659;27;20703;-72
2021/03/30 08:17:01;;;;;;;13.13;7.82;;;;;;;;;;5154986;27;20202;-71
2021/03/30 08:19:27;;;;;;;11.45;6.85;;;;;;;;;;5157159;27;20194;-72
2021/03/30 08:21:54;;;;;;;9.45;6.60;;;;;;;;;;5144322;27;20285;-70
2021/03/30 08:24:20;;;;;;;10.13;7.20;;;;;;;;;;5152081;27;20194;-73
2021/03/30 08:26:47;;;;;;;9.23;6.40;;;;;;;;;;5157114;27;20271;-72
2021/03/30 08:29:14;;;;;;;11.02;7.13;;;;;;;;;;5156483;27;20216;-74
2021/03/30 08:31:41;;;;;;;11.68;8.40;;;;;;;;;;5136847;27;20196;-72
2021/03/30 08:34:09;;;;;;;10.65;7.00;;;;;;;;;;5136097;27;20218;-72
2021/03/30 08:36:37;;;;;;;9.27;6.85;;;;;;;;;;5136361;27;20685;-72
2021/03/30 08:39:08;;;;;;;19.25;8.68;;;;;;;;;;5135857;27;20283;-73
2021/03/30 08:41:51;;;;;;;16.48;7.60;;;;;;;;;;5135967;27;20286;-72
2021/03/30 08:44:17;;;;;;;11.93;7.22;;;;;;;;;;5135827;27;20199;-72
2021/03/30 08:46:44;;;;;;;10.32;5.93;;;;;;;;;;5136410;27;20195;-72
2021/03/30 08:49:23;;;;;;;15.40;8.23;;;;;;;;;;5136220;27;20209;-72
2021/03/30 08:51:51;;;;;;;9.65;6.85;;;;;;;;;;5135809;27;20207;-73
2021/03/30 08:54:18;;;;;;;9.32;6.72;;;;;;;;;;5135629;27;20229;-72
2021/03/30 08:56:44;;;;;;;7.75;5.80;;;;;;;;;;5135565;27;20202;-72
2021/03/30 08:59:11;;;;;;;9.00;5.57;;;;;;;;;;5135288;27;20201;-71
2021/03/30 09:01:37;;;;;;;8.93;5.20;;;;;;;;;;5135543;27;20187;-72
2021/03/30 09:04:04;;;;;;;9.35;5.20;;;;;;;;;;5135825;27;20205;-71
2021/03/30 09:06:35;;;;;;;13.98;7.43;;;;;;;;;;5135890;27;20496;-72
2021/03/30 09:09:01;;;;;;;13.27;5.82;;;;;;;;;;5135966;27;20233;-73
2021/03/30 09:11:28;;;;;;;10.32;5.15;;;;;;;;;;5135827;27;20555;-73
2021/03/30 09:14:01;;;;;;;9.98;6.03;;;;;;;;;;5135429;27;20286;-72
2021/03/30 09:16:27;;;;;;;9.50;5.35;;;;;;;;;;5135603;27;20281;-72
2021/03/30 09:19:08;;;;;;;5.90;4.95;;;;;;;;;;5135653;27;20636;-72
2021/03/30 09:21:35;;;;;;;7.25;4.53;;;;;;;;;;5134789;27;20202;-73
2021/03/30 09:24:07;;;;;;;7.13;5.45;;;;;;;;;;5135531;27;20255;-71
2021/03/30 09:26:37;;;;;;;6.65;4.35;;;;;;;;;;5135287;27;20182;-72
2021/03/30 09:29:03;;;;;;;9.38;4.55;;;;;;;;;;5135629;27;20187;-71
2021/03/30 09:31:30;;;;;;;7.93;4.72;;;;;;;;;;5135293;27;20644;-72
2021/03/30 09:33:57;;;;;;;8.45;4.78;;;;;;;;;;5135201;27;20198;-73
2021/03/30 09:36:23;;;;;;;9.55;5.78;;;;;;;;;;5134936;27;20635;-73
2021/03/30 09:38:52;;;;;;;7.28;3.88;;;;;;;;;;5134269;27;20209;-74
2021/03/30 09:41:33;;;;;;;8.70;4.10;;;;;;;;;;5134910;27;20202;-71
2021/03/30 09:44:00;;;;;;;6.55;4.05;;;;;;;;;;5135075;27;20252;-73
2021/03/30 09:46:26;;;;;;;6.82;3.95;;;;;;;;;;5134827;27;20196;-72
2021/03/30 09:48:53;;;;;;;5.47;3.58;;;;;;;;;;5134684;27;20200;-73
2021/03/30 09:51:19;;;;;;;7.18;3.47;;;;;;;;;;5134747;27;20276;-71
2021/03/30 09:53:45;;;;;;;5.28;3.28;;;;;;;;;;5135007;27;20256;-71
2021/03/30 09:56:19;;;;;;;5.00;2.10;;;;;;;;;;5138743;27;20642;-72
2021/03/30 09:58:45;;;;;;;2.25;1.80;;;;;;;;;;5154524;27;20202;-72
2021/03/30 10:01:11;;;;;;;4.57;2.05;;;;;;;;;;5155233;27;20184;-72
2021/03/30 10:03:37;;;;;;;3.05;2.22;;;;;;;;;;5155940;27;20669;-73
2021/03/30 10:06:16;;;;;;;6.28;4.03;;;;;;;;;;5155760;27;20698;-71
2021/03/30 10:08:42;;;;;;;2.53;2.10;;;;;;;;;;5147471;27;20212;-71
2021/03/30 10:11:08;;;;;;;7.20;2.90;;;;;;;;;;5147608;27;20219;-73
2021/03/30 10:13:37;;;;;;;2.92;2.35;;;;;;;;;;5147127;27;20205;-72
2021/03/30 10:16:05;;;;;;;2.20;1.98;;;;;;;;;;5146492;27;20261;-73
2021/03/30 10:18:32;;;;;;;2.47;1.92;;;;;;;;;;5147373;27;20208;-72
2021/03/30 10:20:59;;;;;;;3.63;2.05;;;;;;;;;;5145963;27;20200;-72
2021/03/30 10:23:29;;;;;;;3.47;1.70;;;;;;;;;;5146202;27;20203;-72
2021/03/30 10:25:55;;;;;;;4.55;2.50;;;;;;;;;;5146257;27;20469;-71
2021/03/30 10:28:25;;;;;;;4.00;1.83;;;;;;;;;;5146369;27;20253;-71
2021/03/30 10:30:56;;;;;;;1.97;1.60;;;;;;;;;;5146449;27;20449;-72
2021/03/30 10:33:32;;;;;;;2.67;1.97;;;;;;;;;;5144911;27;20485;-74
2021/03/30 10:35:59;;;;;;;2.45;2.20;;;;;;;;;;5144062;27;20569;-71
2021/03/30 10:38:25;;;;;;;2.60;1.87;;;;;;;;;;5144441;27;20246;-72
2021/03/30 10:41:01;;;;;;;4.40;2.17;;;;;;;;;;5145418;27;20443;-72
2021/03/30 10:43:27;;;;;;;2.20;1.97;;;;;;;;;;5146345;27;20447;-73
2021/03/30 10:45:55;;;;;;;3.87;2.17;;;;;;;;;;5144651;27;20472;-72
2021/03/30 10:48:21;;;;;;;7.53;2.60;;;;;;;;;;5142570;27;20439;-72
2021/03/30 10:50:47;;;;;;;2.57;1.70;;;;;;;;;;5148277;27;20439;-72
2021/03/30 10:53:14;;;;;;;2.70;2.00;;;;;;;;;;5149321;27;20435;-72
2021/03/30 10:55:42;;;;;;;3.23;1.57;;;;;;;;;;5149387;27;20474;-71
2021/03/30 10:58:09;;;;;;;2.43;1.80;;;;;;;;;;5148891;27;20849;-70
2021/03/30 11:00:36;;;;;;;7.90;1.60;;;;;;;;;;5149409;27;22082;-72
2021/03/30 11:03:04;;;;;;;2.47;1.47;;;;;;;;;;5150312;27;20514;-73
2021/03/30 11:05:30;;;;;;;2.40;1.90;;;;;;;;;;5149510;27;20435;-72
2021/03/30 11:07:56;;;;;;;1.83;1.57;;;;;;;;;;5151306;27;20466;-73
2021/03/30 11:10:23;;;;;;;2.20;1.50;;;;;;;;;;5148853;27;20439;-72
2021/03/30 11:12:50;;;;;;;1.93;1.60;;;;;;;;;;5148918;27;20445;-71
2021/03/30 11:15:16;;;;;;;2.40;1.60;;;;;;;;;;5147995;27;20464;-72
2021/03/30 11:17:42;;;;;;;3.60;1.93;;;;;;;;;;5148848;27;20992;-72
2021/03/30 11:20:12;;;;;;;2.43;1.77;;;;;;;;;;5147313;27;20435;-73
2021/03/30 11:22:40;;;;;;;2.57;1.70;;;;;;;;;;5147966;27;20436;-71
2021/03/30 11:25:07;;;;;;;3.77;2.10;;;;;;;;;;5148097;27;20436;-71
2021/03/30 11:27:35;;;;;;;2.83;2.30;;;;;;;;;;5147991;27;20588;-72
2021/03/30 11:30:09;;;;;;;6.60;2.40;;;;;;;;;;5149691;27;20469;-72
2021/03/30 11:32:42;;;;;;;5.20;1.47;;;;;;;;;;5149828;27;21101;-71
2021/03/30 11:35:12;;;;;;;2.60;1.60;;;;;;;;;;5149093;27;20504;-73
2021/03/30 11:37:54;;;;;;;2.77;1.33;;;;;;;;;;5150840;27;20471;-69
2021/03/30 11:40:20;;;;;;;2.23;1.67;;;;;;;;;;5148381;27;20427;-71
2021/03/30 11:42:46;;;;;;;2.03;1.50;;;;;;;;;;5147475;27;20516;-72
2021/03/30 11:45:13;;;;;;;3.93;1.87;;;;;;;;;;5148331;27;20428;-73
2021/03/30 11:47:39;;;;;;;5.80;1.70;;;;;;;;;;5147376;27;20428;-71
2021/03/30 11:50:06;;;;;;;2.17;2.00;;;;;;;;;;5147867;27;20940;-72
2021/03/30 11:52:33;;;;;;;2.60;2.40;;;;;;;;;;5148264;27;20438;-71
2021/03/30 11:54:59;;;;;;;3.73;2.07;;;;;;;;;;5147814;27;20467;-71
2021/03/30 11:57:26;;;;;;;3.17;1.50;;;;;;;;;;5147504;27;20549;-72
2021/03/30 11:59:52;;;;;;;2.47;1.73;;;;;;;;;;5146533;27;20467;-71
2021/03/30 12:02:18;;;;;;;2.30;1.40;;;;;;;;;;5150015;27;20515;-72
2021/03/30 12:04:44;;;;;;;2.30;1.73;;;;;;;;;;5147524;27;20479;-72
2021/03/30 12:07:11;;;;;;;5.17;3.70;;;;;;;;;;5147973;27;20863;-71
2021/03/30 12:09:38;;;;;;;2.27;1.30;;;;;;;;;;5148047;27;20516;-72
2021/03/30 12:12:04;;;;;;;5.80;3.80;;;;;;;;;;5148055;27;20439;-71
2021/03/30 12:14:31;;;;;;;1.93;1.70;;;;;;;;;;5148297;27;20471;-72
2021/03/30 12:16:57;;;;;;;3.83;1.60;;;;;;;;;;5147745;27;20433;-73
2021/03/30 12:19:23;;;;;;;5.53;2.87;;;;;;;;;;5146203;27;20454;-72
2021/03/30 12:21:52;;;;;;;1.90;1.73;;;;;;;;;;5148392;27;20472;-71
2021/03/30 12:24:20;;;;;;;1.70;1.47;;;;;;;;;;5146384;27;20429;-72
2021/03/30 12:26:47;;;;;;;2.80;1.70;;;;;;;;;;5148191;27;20901;-72
2021/03/30 12:29:13;;;;;;;4.67;2.27;;;;;;;;;;5147135;27;20439;-73
2021/03/30 12:31:39;;;;;;;2.20;1.90;;;;;;;;;;5147337;27;20427;-72
2021/03/30 12:34:06;;;;;;;2.00;1.63;;;;;;;;;;5147265;27;20452;-73
2021/03/30 12:36:32;;;;;;;2.50;1.87;;;;;;;;;;5147564;27;20471;-73
2021/03/30 12:38:58;;;;;;;2.17;1.80;;;;;;;;;;5146032;27;20440;-72
2021/03/30 12:41:24;;;;;;;3.47;1.60;;;;;;;;;;5146387;27;20435;-72
2021/03/30 12:43:52;;;;;;;2.20;1.87;;;;;;;;;;5148649;27;20547;-71
2021/03/30 12:46:18;;;;;;;8.40;2.60;;;;;;;;;;5146721;27;20431;-72
2021/03/30 12:48:44;;;;;;;2.40;1.90;;;;;;;;;;5147154;27;20484;-71
2021/03/30 12:51:10;;;;;;;2.53;1.77;;;;;;;;;;5146105;27;20479;-72
2021/03/30 12:53:36;;;;;;;3.57;2.33;;;;;;;;;;5146641;27;20535;-72
2021/03/30 12:56:02;;;;;;;3.30;1.87;;;;;;;;;;5146728;27;20870;-74
2021/03/30 12:58:28;;;;;;;1.87;1.67;;;;;;;;;;5145723;27;22205;-73
2021/03/30 13:00:55;;;;;;;1.60;1.40;;;;;;;;;;5147565;27;20487;-72
2021/03/30 13:03:22;;;;;;;2.73;1.73;;;;;;;;;;5147665;27;20432;-73
2021/03/30 13:05:48;;;;;;;4.77;3.87;;;;;;;;;;5147105;27;20436;-73
2021/03/30 13:08:14;;;;;;;1.93;1.73;;;;;;;;;;5144472;27;20924;-71
2021/03/30 13:10:40;;;;;;;1.93;1.67;;;;;;;;;;5145499;27;20443;-71
2021/03/30 13:13:06;;;;;;;2.10;1.50;;;;;;;;;;5145402;27;20443;-71
2021/03/30 13:15:32;;;;;;;3.37;1.93;;;;;;;;;;5145289;27;20460;-72
2021/03/30 13:17:59;;;;;;;3.00;2.20;;;;;;;;;;5147994;27;20443;-72
2021/03/30 13:20:25;;;;;;;2.30;1.40;;;;;;;;;;5146948;27;20960;-73
2021/03/30 13:22:53;;;;;;;3.97;1.93;;;;;;;;;;5143569;27;20439;-71
2021/03/30 13:25:22;;;;;;;4.23;2.90;;;;;;;;;;5144592;27;20428;-72
2021/03/30 13:27:49;;;;;;;2.87;2.10;;;;;;;;;;5148089;27;20484;-72
2021/03/30 13:30:16;;;;;;;6.23;2.90;;;;;;;;;;5147604;27;20444;-73
2021/03/30 13:32:42;;;;;;;4.60;2.30;;;;;;;;;;5144720;27;20511;-71
2021/03/30 13:35:10;;;;;;;1.67;1.57;;;;;;;;;;5145721;27;20482;-72
2021/03/30 13:37:36;;;;;;;4.20;1.90;;;;;;;;;;5146816;27;20532;-73
2021/03/30 13:40:02;;;;;;;3.57;2.37;;;;;;;;;;5142807;27;20439;-74
2021/03/30 13:42:29;;;;;;;6.33;2.03;;;;;;;;;;5146360;27;20944;-72
2021/03/30 13:44:55;;;;;;;1.97;1.67;;;;;;;;;;5145246;27;20842;-71
2021/03/30 13:47:21;;;;;;;1.47;1.37;;;;;;;;;;5143677;27;20436;-74
2021/03/30 13:49:47;;;;;;;11.43;2.30;;;;;;;;;;5145995;27;20432;-72
2021/03/30 13:52:14;;;;;;;2.17;1.80;;;;;;;;;;5147204;27;20440;-72
2021/03/30 13:54:40;;;;;;;2.77;1.47;;;;;;;;;;5146050;27;20478;-72
2021/03/30 13:57:07;;;;;;;1.70;1.20;;;;;;;;;;5145132;27;21030;-73
2021/03/30 13:59:33;;;;;;;4.27;2.37;;;;;;;;;;5143891;27;20451;-73
2021/03/30 14:01:59;;;;;;;1.30;1.20;;;;;;;;;;5145792;27;20440;-71
2021/03/30 14:04:25;;;;;;;2.53;1.87;;;;;;;;;;5149482;27;20556;-72
2021/03/30 14:06:52;;;;;;;1.57;1.20;;;;;;;;;;5145508;27;20431;-72
2021/03/30 14:09:19;;;;;;;1.47;1.17;;;;;;;;;;5144488;27;20459;-73
2021/03/30 14:11:48;;;;;;;4.10;2.67;;;;;;;;;;5146798;27;20527;-72
2021/03/30 14:14:16;;;;;;;5.47;1.73;;;;;;;;;;5145024;27;20444;-72
2021/03/30 14:16:54;;;;;;;1.90;1.73;;;;;;;;;;5145084;27;20466;-73
2021/03/30 14:19:22;;;;;;;2.07;1.47;;;;;;;;;;5142710;27;20429;-72
2021/03/30 14:21:51;;;;;;;2.10;1.73;;;;;;;;;;5134136;27;20531;-71
2021/03/30 14:24:29;;;;;;;4.30;1.57;;;;;;;;;;5133847;27;20436;-74
2021/03/30 14:26:55;;;;;;;6.67;1.80;;;;;;;;;;5134208;27;20436;-71
2021/03/30 14:29:21;;;;;;;3.07;1.87;;;;;;;;;;5133891;27;20463;-73
2021/03/30 14:31:47;;;;;;;2.50;1.53;;;;;;;;;;5133894;27;20431;-71
2021/03/30 14:34:13;;;;;;;2.23;1.30;;;;;;;;;;5134040;27;20455;-74
2021/03/30 14:36:39;;;;;;;1.73;1.63;;;;;;;;;;5133669;28;20527;-73
2021/03/30 14:39:07;;;;;;;1.87;1.77;;;;;;;;;;5134290;28;20776;-73
2021/03/30 14:41:36;;;;;;;1.73;1.10;;;;;;;;;;5134274;28;20911;-71
2021/03/30 14:44:11;;;;;;;2.47;1.27;;;;;;;;;;5134521;28;20926;-72